sensor_id;sensor_type;location;lat;lon;timestamp;pressure;altitude;pressure_sealevel;temperature;humidity
43681;BME280;29281;50.356;30.894;2023-04-27T00:00:48;99328.68;;;12.05;100.00
43681;BME280;29281;50.356;30.894;2023-04-27T00:01:53;99331.34;;;12.05;100.00
43681;BME280;29281;50.356;30.894;2023-04-27T00:02:56;99329.92;;;12.01;100.00
43681;BME280;29281;50.356;30.894;2023-04-27T00:04:01;99334.84;;;12.05;100.00
43681;BME280;29281;50.356;30.894;2023-04-27T00:05:06;99331.86;;;11.98;100.00
43681;BME280;29281;50.356;30.894;2023-04-27T00:06:10;99339.94;;;11.67;100.00
43681;BME280;29281;50.356;30.894;2023-04-27T00:07:15;99333.61;;;11.58;100.00
43681;BME280;29281;50.356;30.894;2023-04-27T00:08:18;99338.52;;;11.62;100.00
43681;BME280;29281;50.356;30.894;2023-04-27T00:09:21;99344.63;;;11.53;100.00
43681;BME280;29281;50.356;30.894;2023-04-27T00:10:25;99345.94;;;11.59;100.00
43681;BME280;29281;50.356;30.894;2023-04-27T00:11:27;99342.14;;;11.61;100.00
43681;BME280;29281;50.356;30.894;2023-04-27T00:12:31;99338.92;;;11.58;100.00
43681;BME280;29281;50.356;30.894;2023-04-27T00:13:35;99343.27;;;11.38;100.00
43681;BME280;29281;50.356;30.894;2023-04-27T00:14:39;99349.44;;;11.39;100.00
43681;BME280;29281;50.356;30.894;2023-04-27T00:15:43;99339.77;;;11.38;100.00
43681;BME280;29281;50.356;30.894;2023-04-27T00:16:49;99343.45;;;11.46;100.00
43681;BME280;29281;50.356;30.894;2023-04-27T00:17:52;99340.11;;;11.44;100.00
43681;BME280;29281;50.356;30.894;2023-04-27T00:18:56;99336.39;;;11.36;100.00
43681;BME280;29281;50.356;30.894;2023-04-27T00:20:00;99342.09;;;11.31;100.00
43681;BME280;29281;50.356;30.894;2023-04-27T00:21:04;99341.25;;;11.31;100.00
43681;BME280;29281;50.356;30.894;2023-04-27T00:22:08;99342.94;;;11.32;100.00
43681;BME280;29281;50.356;30.894;2023-04-27T00:23:12;99347.03;;;11.36;100.00
43681;BME280;29281;50.356;30.894;2023-04-27T00:24:16;99344.38;;;11.36;100.00
43681;BME280;29281;50.356;30.894;2023-04-27T00:25:20;99357.28;;;11.40;100.00
43681;BME280;29281;50.356;30.894;2023-04-27T00:26:25;99358.25;;;11.39;100.00
43681;BME280;29281;50.356;30.894;2023-04-27T00:27:29;99364.92;;;11.34;100.00
43681;BME280;29281;50.356;30.894;2023-04-27T00:28:32;99367.83;;;11.10;100.00
43681;BME280;29281;50.356;30.894;2023-04-27T00:29:35;99370.80;;;11.16;100.00
43681;BME280;29281;50.356;30.894;2023-04-27T00:30:39;99371.33;;;11.10;100.00
43681;BME280;29281;50.356;30.894;2023-04-27T00:31:43;99372.42;;;11.08;100.00
43681;BME280;29281;50.356;30.894;2023-04-27T00:32:48;99379.80;;;11.04;100.00
43681;BME280;29281;50.356;30.894;2023-04-27T00:33:53;99375.20;;;11.06;100.00
43681;BME280;29281;50.356;30.894;2023-04-27T00:34:58;99379.73;;;10.95;100.00
43681;BME280;29281;50.356;30.894;2023-04-27T00:36:00;99381.31;;;10.86;100.00
43681;BME280;29281;50.356;30.894;2023-04-27T00:37:04;99378.88;;;10.94;100.00
43681;BME280;29281;50.356;30.894;2023-04-27T00:38:08;99378.36;;;11.00;100.00
43681;BME280;29281;50.356;30.894;2023-04-27T00:39:11;99383.88;;;10.76;100.00
43681;BME280;29281;50.356;30.894;2023-04-27T00:40:15;99372.89;;;10.81;100.00
43681;BME280;29281;50.356;30.894;2023-04-27T00:41:17;99377.56;;;10.88;100.00
43681;BME280;29281;50.356;30.894;2023-04-27T00:42:22;99369.82;;;10.97;100.00
43681;BME280;29281;50.356;30.894;2023-04-27T00:43:26;99369.84;;;10.85;100.00
43681;BME280;29281;50.356;30.894;2023-04-27T00:44:30;99374.66;;;10.91;100.00
43681;BME280;29281;50.356;30.894;2023-04-27T00:45:35;99376.34;;;10.92;100.00
43681;BME280;29281;50.356;30.894;2023-04-27T00:46:39;99377.07;;;10.95;100.00
43681;BME280;29281;50.356;30.894;2023-04-27T00:47:43;99373.52;;;11.05;100.00
43681;BME280;29281;50.356;30.894;2023-04-27T00:48:51;99377.56;;;10.88;100.00
43681;BME280;29281;50.356;30.894;2023-04-27T00:49:51;99378.66;;;10.86;100.00
43681;BME280;29281;50.356;30.894;2023-04-27T00:50:53;99377.56;;;10.88;100.00
43681;BME280;29281;50.356;30.894;2023-04-27T00:51:58;99376.22;;;10.94;100.00
43681;BME280;29281;50.356;30.894;2023-04-27T00:53:02;99373.20;;;10.99;100.00
43681;BME280;29281;50.356;30.894;2023-04-27T00:54:06;99378.76;;;10.96;100.00
43681;BME280;29281;50.356;30.894;2023-04-27T00:55:12;99382.50;;;10.93;100.00
43681;BME280;29281;50.356;30.894;2023-04-27T00:56:18;99382.92;;;10.77;100.00
43681;BME280;29281;50.356;30.894;2023-04-27T00:57:20;99372.58;;;10.63;100.00
43681;BME280;29281;50.356;30.894;2023-04-27T00:58:25;99377.67;;;10.44;100.00
43681;BME280;29281;50.356;30.894;2023-04-27T00:59:30;99367.78;;;10.46;100.00
43681;BME280;29281;50.356;30.894;2023-04-27T01:00:35;99374.91;;;10.45;100.00
43681;BME280;29281;50.356;30.894;2023-04-27T01:01:39;99380.70;;;10.50;100.00
43681;BME280;29281;50.356;30.894;2023-04-27T01:02:42;99378.76;;;10.41;100.00
43681;BME280;29281;50.356;30.894;2023-04-27T01:03:45;99376.02;;;10.32;100.00
43681;BME280;29281;50.356;30.894;2023-04-27T01:04:50;99378.03;;;10.39;100.00
43681;BME280;29281;50.356;30.894;2023-04-27T01:05:53;99377.34;;;10.37;100.00
43681;BME280;29281;50.356;30.894;2023-04-27T01:06:58;99384.92;;;10.53;100.00
43681;BME280;29281;50.356;30.894;2023-04-27T01:08:02;99385.25;;;10.60;100.00
43681;BME280;29281;50.356;30.894;2023-04-27T01:09:05;99383.47;;;10.49;100.00
43681;BME280;29281;50.356;30.894;2023-04-27T01:10:10;99382.16;;;10.32;100.00
43681;BME280;29281;50.356;30.894;2023-04-27T01:11:16;99390.00;;;10.34;100.00
43681;BME280;29281;50.356;30.894;2023-04-27T01:12:19;99382.53;;;10.39;100.00
43681;BME280;29281;50.356;30.894;2023-04-27T01:13:23;99391.67;;;10.46;100.00
43681;BME280;29281;50.356;30.894;2023-04-27T01:14:26;99386.13;;;10.49;100.00
43681;BME280;29281;50.356;30.894;2023-04-27T01:15:30;99392.01;;;10.64;100.00
43681;BME280;29281;50.356;30.894;2023-04-27T01:16:32;99385.97;;;10.62;100.00
43681;BME280;29281;50.356;30.894;2023-04-27T01:17:36;99390.80;;;10.56;100.00
43681;BME280;29281;50.356;30.894;2023-04-27T01:18:41;99384.55;;;10.46;100.00
43681;BME280;29281;50.356;30.894;2023-04-27T01:19:44;99378.88;;;10.40;100.00
43681;BME280;29281;50.356;30.894;2023-04-27T01:20:48;99379.03;;;10.38;100.00
43681;BME280;29281;50.356;30.894;2023-04-27T01:21:51;99384.81;;;10.32;100.00
43681;BME280;29281;50.356;30.894;2023-04-27T01:22:55;99371.30;;;10.24;100.00
43681;BME280;29281;50.356;30.894;2023-04-27T01:24:00;99381.80;;;9.92;100.00
43681;BME280;29281;50.356;30.894;2023-04-27T01:25:04;99383.33;;;9.95;100.00
43681;BME280;29281;50.356;30.894;2023-04-27T01:26:11;99384.80;;;9.87;100.00
43681;BME280;29281;50.356;30.894;2023-04-27T01:27:16;99383.95;;;9.98;100.00
43681;BME280;29281;50.356;30.894;2023-04-27T01:28:20;99384.06;;;9.97;100.00
43681;BME280;29281;50.356;30.894;2023-04-27T01:29:22;99384.67;;;10.00;100.00
43681;BME280;29281;50.356;30.894;2023-04-27T01:30:28;99391.78;;;9.88;100.00
43681;BME280;29281;50.356;30.894;2023-04-27T01:31:33;99389.25;;;9.87;100.00
43681;BME280;29281;50.356;30.894;2023-04-27T01:32:37;99386.48;;;9.88;100.00
43681;BME280;29281;50.356;30.894;2023-04-27T01:33:40;99392.25;;;9.94;100.00
43681;BME280;29281;50.356;30.894;2023-04-27T01:34:43;99392.25;;;9.94;100.00
43681;BME280;29281;50.356;30.894;2023-04-27T01:35:51;99390.44;;;9.94;100.00
43681;BME280;29281;50.356;30.894;2023-04-27T01:36:54;99395.25;;;9.78;100.00
43681;BME280;29281;50.356;30.894;2023-04-27T01:38:00;99392.97;;;9.62;100.00
43681;BME280;29281;50.356;30.894;2023-04-27T01:39:04;99395.98;;;9.80;100.00
43681;BME280;29281;50.356;30.894;2023-04-27T01:40:11;99392.75;;;9.87;100.00
43681;BME280;29281;50.356;30.894;2023-04-27T01:41:15;99391.78;;;10.00;100.00
43681;BME280;29281;50.356;30.894;2023-04-27T01:42:18;99401.20;;;10.04;100.00
43681;BME280;29281;50.356;30.894;2023-04-27T01:43:22;99402.66;;;10.08;100.00
43681;BME280;29281;50.356;30.894;2023-04-27T01:44:30;99410.00;;;10.15;100.00
43681;BME280;29281;50.356;30.894;2023-04-27T01:45:33;99402.77;;;10.17;100.00
43681;BME280;29281;50.356;30.894;2023-04-27T01:46:36;99407.98;;;10.19;100.00
43681;BME280;29281;50.356;30.894;2023-04-27T01:47:44;99402.27;;;10.12;100.00
43681;BME280;29281;50.356;30.894;2023-04-27T01:48:48;99403.23;;;10.11;100.00
43681;BME280;29281;50.356;30.894;2023-04-27T01:49:51;99406.38;;;10.16;100.00
43681;BME280;29281;50.356;30.894;2023-04-27T01:50:54;99403.97;;;10.13;100.00
43681;BME280;29281;50.356;30.894;2023-04-27T01:51:58;99409.77;;;10.07;100.00
43681;BME280;29281;50.356;30.894;2023-04-27T01:53:02;99406.73;;;10.12;100.00
43681;BME280;29281;50.356;30.894;2023-04-27T01:54:05;99408.92;;;10.18;100.00
43681;BME280;29281;50.356;30.894;2023-04-27T01:55:10;99412.91;;;10.23;100.00
43681;BME280;29281;50.356;30.894;2023-04-27T01:56:14;99404.38;;;10.20;100.00
43681;BME280;29281;50.356;30.894;2023-04-27T01:57:18;99411.37;;;10.21;100.00
43681;BME280;29281;50.356;30.894;2023-04-27T01:58:22;99410.14;;;10.25;100.00
43681;BME280;29281;50.356;30.894;2023-04-27T01:59:27;99416.88;;;10.18;100.00
43681;BME280;29281;50.356;30.894;2023-04-27T02:00:30;99411.58;;;10.18;100.00
43681;BME280;29281;50.356;30.894;2023-04-27T02:01:35;99397.26;;;10.20;100.00
43681;BME280;29281;50.356;30.894;2023-04-27T02:02:38;99409.56;;;10.21;100.00
43681;BME280;29281;50.356;30.894;2023-04-27T02:03:42;99411.58;;;10.18;100.00
43681;BME280;29281;50.356;30.894;2023-04-27T02:04:52;99408.20;;;10.05;100.00
43681;BME280;29281;50.356;30.894;2023-04-27T02:05:56;99414.23;;;10.07;100.00
43681;BME280;29281;50.356;30.894;2023-04-27T02:07:00;99418.08;;;10.03;100.00
43681;BME280;29281;50.356;30.894;2023-04-27T02:08:03;99427.73;;;10.04;100.00
43681;BME280;29281;50.356;30.894;2023-04-27T02:09:11;99420.12;;;10.10;100.00
43681;BME280;29281;50.356;30.894;2023-04-27T02:10:16;99423.27;;;10.15;100.00
43681;BME280;29281;50.356;30.894;2023-04-27T02:11:19;99415.92;;;10.08;100.00
43681;BME280;29281;50.356;30.894;2023-04-27T02:12:25;99417.96;;;10.04;100.00
43681;BME280;29281;50.356;30.894;2023-04-27T02:13:31;99426.38;;;10.09;100.00
43681;BME280;29281;50.356;30.894;2023-04-27T02:14:34;99421.92;;;9.99;100.00
43681;BME280;29281;50.356;30.894;2023-04-27T02:15:37;99420.80;;;9.79;100.00
43681;BME280;29281;50.356;30.894;2023-04-27T02:16:42;99417.18;;;9.69;100.00
43681;BME280;29281;50.356;30.894;2023-04-27T02:17:45;99417.45;;;9.77;100.00
43681;BME280;29281;50.356;30.894;2023-04-27T02:18:48;99416.84;;;9.73;100.00
43681;BME280;29281;50.356;30.894;2023-04-27T02:19:51;99415.49;;;9.68;100.00
43681;BME280;29281;50.356;30.894;2023-04-27T02:20:53;99416.95;;;9.72;100.00
43681;BME280;29281;50.356;30.894;2023-04-27T02:21:57;99418.03;;;9.69;100.00
43681;BME280;29281;50.356;30.894;2023-04-27T02:23:01;99421.06;;;9.76;100.00
43681;BME280;29281;50.356;30.894;2023-04-27T02:24:05;99420.22;;;9.75;100.00
43681;BME280;29281;50.356;30.894;2023-04-27T02:25:10;99426.70;;;9.60;100.00
43681;BME280;29281;50.356;30.894;2023-04-27T02:26:15;99430.25;;;9.48;100.00
43681;BME280;29281;50.356;30.894;2023-04-27T02:27:20;99425.69;;;9.50;100.00
43681;BME280;29281;50.356;30.894;2023-04-27T02:28:24;99427.14;;;9.54;100.00
43681;BME280;29281;50.356;30.894;2023-04-27T02:29:29;99428.59;;;9.47;100.00
43681;BME280;29281;50.356;30.894;2023-04-27T02:30:33;99434.23;;;9.42;100.00
43681;BME280;29281;50.356;30.894;2023-04-27T02:31:36;99424.36;;;9.44;100.00
43681;BME280;29281;50.356;30.894;2023-04-27T02:32:40;99430.42;;;9.58;100.00
43681;BME280;29281;50.356;30.894;2023-04-27T02:33:46;99428.73;;;9.57;100.00
43681;BME280;29281;50.356;30.894;2023-04-27T02:34:51;99427.05;;;9.67;100.00
43681;BME280;29281;50.356;30.894;2023-04-27T02:35:54;99428.11;;;9.53;100.00
43681;BME280;29281;50.356;30.894;2023-04-27T02:36:59;99423.03;;;9.50;100.00
43681;BME280;29281;50.356;30.894;2023-04-27T02:38:05;99426.50;;;9.39;100.00
43681;BME280;29281;50.356;30.894;2023-04-27T02:39:10;99438.09;;;9.49;100.00
43681;BME280;29281;50.356;30.894;2023-04-27T02:40:15;99432.53;;;9.41;100.00
43681;BME280;29281;50.356;30.894;2023-04-27T02:41:22;99435.92;;;9.43;100.00
43681;BME280;29281;50.356;30.894;2023-04-27T02:42:26;99438.56;;;9.43;100.00
43681;BME280;29281;50.356;30.894;2023-04-27T02:43:29;99433.30;;;9.55;100.00
43681;BME280;29281;50.356;30.894;2023-04-27T02:44:41;99428.73;;;9.57;100.00
43681;BME280;29281;50.356;30.894;2023-04-27T02:45:47;99441.47;;;9.51;100.00
43681;BME280;29281;50.356;30.894;2023-04-27T02:46:54;99441.70;;;9.48;100.00
43681;BME280;29281;50.356;30.894;2023-04-27T02:47:57;99441.70;;;9.48;100.00
43681;BME280;29281;50.356;30.894;2023-04-27T02:49:01;99435.30;;;9.40;100.00
43681;BME280;29281;50.356;30.894;2023-04-27T02:50:05;99441.70;;;9.48;100.00
43681;BME280;29281;50.356;30.894;2023-04-27T02:51:10;99440.59;;;9.40;100.00
43681;BME280;29281;50.356;30.894;2023-04-27T02:52:13;99435.38;;;9.27;100.00
43681;BME280;29281;50.356;30.894;2023-04-27T02:53:17;99440.02;;;9.12;100.00
43681;BME280;29281;50.356;30.894;2023-04-27T02:54:19;99439.90;;;9.14;100.00
43681;BME280;29281;50.356;30.894;2023-04-27T02:55:22;99438.76;;;9.05;100.00
43681;BME280;29281;50.356;30.894;2023-04-27T02:56:25;99436.63;;;9.10;100.00
43681;BME280;29281;50.356;30.894;2023-04-27T02:57:28;99440.27;;;9.21;100.00
43681;BME280;29281;50.356;30.894;2023-04-27T02:58:34;99443.80;;;9.32;100.00
43681;BME280;29281;50.356;30.894;2023-04-27T02:59:39;99441.52;;;9.28;100.00
43681;BME280;29281;50.356;30.894;2023-04-27T03:00:43;99448.73;;;9.26;100.00
43681;BME280;29281;50.356;30.894;2023-04-27T03:01:48;99448.62;;;9.27;100.00
43681;BME280;29281;50.356;30.894;2023-04-27T03:02:51;99443.21;;;9.29;100.00
43681;BME280;29281;50.356;30.894;2023-04-27T03:03:54;99451.34;;;9.14;100.00
43681;BME280;29281;50.356;30.894;2023-04-27T03:04:57;99448.62;;;9.27;100.00
43681;BME280;29281;50.356;30.894;2023-04-27T03:06:01;99450.54;;;9.25;100.00
43681;BME280;29281;50.356;30.894;2023-04-27T03:07:04;99443.14;;;9.17;100.00
43681;BME280;29281;50.356;30.894;2023-04-27T03:08:08;99449.06;;;9.21;100.00
43681;BME280;29281;50.356;30.894;2023-04-27T03:09:12;99454.84;;;9.15;100.00
43681;BME280;29281;50.356;30.894;2023-04-27T03:10:18;99450.38;;;9.15;100.00
43681;BME280;29281;50.356;30.894;2023-04-27T03:11:21;99450.31;;;9.04;100.00
43681;BME280;29281;50.356;30.894;2023-04-27T03:12:24;99453.06;;;9.03;100.00
43681;BME280;29281;50.356;30.894;2023-04-27T03:13:28;99454.16;;;9.00;100.00
43681;BME280;29281;50.356;30.894;2023-04-27T03:14:31;99454.76;;;9.04;100.00
43681;BME280;29281;50.356;30.894;2023-04-27T03:15:34;99464.17;;;9.08;100.00
43681;BME280;29281;50.356;30.894;2023-04-27T03:16:37;99464.17;;;8.84;100.00
43681;BME280;29281;50.356;30.894;2023-04-27T03:17:43;99467.41;;;9.00;100.00
43681;BME280;29281;50.356;30.894;2023-04-27T03:18:47;99466.50;;;9.12;100.00
43681;BME280;29281;50.356;30.894;2023-04-27T03:19:50;99468.63;;;9.07;100.00
43681;BME280;29281;50.356;30.894;2023-04-27T03:21:03;99467.45;;;9.11;100.00
43681;BME280;29281;50.356;30.894;2023-04-27T03:22:01;99472.50;;;8.91;100.00
43681;BME280;29281;50.356;30.894;2023-04-27T03:23:04;99467.78;;;8.83;100.00
43681;BME280;29281;50.356;30.894;2023-04-27T03:24:08;99468.27;;;8.88;100.00
43681;BME280;29281;50.356;30.894;2023-04-27T03:25:14;99467.67;;;8.85;100.00
43681;BME280;29281;50.356;30.894;2023-04-27T03:26:17;99468.91;;;8.92;100.00
43681;BME280;29281;50.356;30.894;2023-04-27T03:27:22;99466.66;;;8.98;100.00
43681;BME280;29281;50.356;30.894;2023-04-27T03:28:25;99473.55;;;9.01;100.00
43681;BME280;29281;50.356;30.894;2023-04-27T03:29:29;99478.75;;;8.90;100.00
43681;BME280;29281;50.356;30.894;2023-04-27T03:30:33;99481.30;;;8.91;100.00
43681;BME280;29281;50.356;30.894;2023-04-27T03:31:37;99485.20;;;8.98;100.00
43681;BME280;29281;50.356;30.894;2023-04-27T03:32:40;99487.00;;;8.98;100.00
43681;BME280;29281;50.356;30.894;2023-04-27T03:33:44;99492.80;;;9.03;100.00
43681;BME280;29281;50.356;30.894;2023-04-27T03:34:49;99494.79;;;9.12;100.00
43681;BME280;29281;50.356;30.894;2023-04-27T03:35:53;99492.14;;;9.12;100.00
43681;BME280;29281;50.356;30.894;2023-04-27T03:36:58;99493.53;;;9.05;100.00
43681;BME280;29281;50.356;30.894;2023-04-27T03:38:06;99495.00;;;9.09;100.00
43681;BME280;29281;50.356;30.894;2023-04-27T03:39:06;99495.44;;;9.03;100.00
43681;BME280;29281;50.356;30.894;2023-04-27T03:40:10;99497.22;;;9.15;100.00
43681;BME280;29281;50.356;30.894;2023-04-27T03:41:15;99492.14;;;9.12;100.00
43681;BME280;29281;50.356;30.894;2023-04-27T03:42:21;99500.73;;;9.03;100.00
43681;BME280;29281;50.356;30.894;2023-04-27T03:43:24;99488.61;;;8.88;100.00
43681;BME280;29281;50.356;30.894;2023-04-27T03:44:28;99489.59;;;8.74;100.00
43681;BME280;29281;50.356;30.894;2023-04-27T03:45:34;99482.12;;;8.68;100.00
43681;BME280;29281;50.356;30.894;2023-04-27T03:46:37;99491.19;;;8.76;100.00
43681;BME280;29281;50.356;30.894;2023-04-27T03:47:41;99485.57;;;8.81;100.00
43681;BME280;29281;50.356;30.894;2023-04-27T03:48:44;99481.66;;;8.74;100.00
43681;BME280;29281;50.356;30.894;2023-04-27T03:49:52;99482.61;;;8.73;100.00
43681;BME280;29281;50.356;30.894;2023-04-27T03:50:55;99483.66;;;8.83;100.00
43681;BME280;29281;50.356;30.894;2023-04-27T03:51:59;99480.38;;;8.79;100.00
43681;BME280;29281;50.356;30.894;2023-04-27T03:53:02;99486.80;;;8.88;100.00
43681;BME280;29281;50.356;30.894;2023-04-27T03:54:05;99486.80;;;8.88;100.00
43681;BME280;29281;50.356;30.894;2023-04-27T03:55:08;99494.25;;;8.83;100.00
43681;BME280;29281;50.356;30.894;2023-04-27T03:56:13;99483.25;;;8.76;100.00
43681;BME280;29281;50.356;30.894;2023-04-27T03:57:17;99491.30;;;8.75;100.00
43681;BME280;29281;50.356;30.894;2023-04-27T03:58:21;99487.80;;;8.74;100.00
43681;BME280;29281;50.356;30.894;2023-04-27T03:59:39;99484.30;;;8.74;100.00
43681;BME280;29281;50.356;30.894;2023-04-27T04:00:43;99497.64;;;8.72;100.00
43681;BME280;29281;50.356;30.894;2023-04-27T04:01:48;99493.44;;;8.57;100.00
43681;BME280;29281;50.356;30.894;2023-04-27T04:02:54;99501.20;;;8.48;100.00
43681;BME280;29281;50.356;30.894;2023-04-27T04:03:59;99502.23;;;8.58;100.00
43681;BME280;29281;50.356;30.894;2023-04-27T04:05:03;99502.09;;;8.72;100.00
43681;BME280;29281;50.356;30.894;2023-04-27T04:06:08;99494.40;;;8.69;100.00
43681;BME280;29281;50.356;30.894;2023-04-27T04:07:12;99498.95;;;8.67;100.00
43681;BME280;29281;50.356;30.894;2023-04-27T04:08:16;99505.83;;;8.57;100.00
43681;BME280;29281;50.356;30.894;2023-04-27T04:09:19;99504.48;;;8.51;100.00
43681;BME280;29281;50.356;30.894;2023-04-27T04:10:24;99496.73;;;8.61;100.00
43681;BME280;29281;50.356;30.894;2023-04-27T04:11:28;99501.56;;;8.79;100.00
43681;BME280;29281;50.356;30.894;2023-04-27T04:12:33;99506.33;;;8.74;100.00
43681;BME280;29281;50.356;30.894;2023-04-27T04:13:36;99504.11;;;8.81;100.00
43681;BME280;29281;50.356;30.894;2023-04-27T04:14:40;99508.02;;;8.75;100.00
43681;BME280;29281;50.356;30.894;2023-04-27T04:15:44;99506.97;;;8.78;100.00
43681;BME280;29281;50.356;30.894;2023-04-27T04:16:50;99505.34;;;8.88;100.00
43681;BME280;29281;50.356;30.894;2023-04-27T04:17:55;99500.89;;;8.89;100.00
43681;BME280;29281;50.356;30.894;2023-04-27T04:18:59;99503.89;;;8.84;100.00
43681;BME280;29281;50.356;30.894;2023-04-27T04:20:03;99499.44;;;8.85;100.00
43681;BME280;29281;50.356;30.894;2023-04-27T04:21:08;99502.84;;;8.74;100.00
43681;BME280;29281;50.356;30.894;2023-04-27T04:22:15;99497.33;;;8.77;100.00
43681;BME280;29281;50.356;30.894;2023-04-27T04:23:19;99503.58;;;8.76;100.00
43681;BME280;29281;50.356;30.894;2023-04-27T04:24:24;99495.63;;;8.76;100.00
43681;BME280;29281;50.356;30.894;2023-04-27T04:25:29;99496.91;;;8.83;100.00
43681;BME280;29281;50.356;30.894;2023-04-27T04:26:33;99503.95;;;8.95;100.00
43681;BME280;29281;50.356;30.894;2023-04-27T04:27:38;99499.94;;;8.90;100.00
43681;BME280;29281;50.356;30.894;2023-04-27T04:28:40;99502.00;;;9.10;100.00
43681;BME280;29281;50.356;30.894;2023-04-27T04:29:44;99503.89;;;8.84;100.00
43681;BME280;29281;50.356;30.894;2023-04-27T04:30:47;99499.34;;;8.73;100.00
43681;BME280;29281;50.356;30.894;2023-04-27T04:31:51;99512.16;;;8.79;100.00
43681;BME280;29281;50.356;30.894;2023-04-27T04:32:54;99498.66;;;8.95;100.00
43681;BME280;29281;50.356;30.894;2023-04-27T04:33:59;99499.30;;;8.99;100.00
43681;BME280;29281;50.356;30.894;2023-04-27T04:35:04;99502.27;;;8.94;100.00
43681;BME280;29281;50.356;30.894;2023-04-27T04:36:13;99513.25;;;8.64;100.00
43681;BME280;29281;50.356;30.894;2023-04-27T04:37:15;99502.23;;;8.58;100.00
43681;BME280;29281;50.356;30.894;2023-04-27T04:38:22;99511.84;;;8.71;100.00
43681;BME280;29281;50.356;30.894;2023-04-27T04:39:32;99505.80;;;8.82;100.00
43681;BME280;29281;50.356;30.894;2023-04-27T04:40:37;99515.89;;;8.64;100.00
43681;BME280;29281;50.356;30.894;2023-04-27T04:41:42;99510.27;;;8.56;100.00
43681;BME280;29281;50.356;30.894;2023-04-27T04:42:46;99510.70;;;8.63;100.00
43681;BME280;29281;50.356;30.894;2023-04-27T04:43:50;99515.68;;;8.67;100.00
43681;BME280;29281;50.356;30.894;2023-04-27T04:44:54;99508.98;;;8.74;100.00
43681;BME280;29281;50.356;30.894;2023-04-27T04:45:58;99505.37;;;8.75;100.00
43681;BME280;29281;50.356;30.894;2023-04-27T04:47:03;99514.06;;;8.77;100.00
43681;BME280;29281;50.356;30.894;2023-04-27T04:48:07;99516.07;;;8.74;100.00
43681;BME280;29281;50.356;30.894;2023-04-27T04:49:10;99518.30;;;8.80;100.00
43681;BME280;29281;50.356;30.894;2023-04-27T04:50:14;99507.07;;;8.76;100.00
43681;BME280;29281;50.356;30.894;2023-04-27T04:51:18;99509.89;;;8.86;100.00
43681;BME280;29281;50.356;30.894;2023-04-27T04:52:21;99516.42;;;8.69;100.00
43681;BME280;29281;50.356;30.894;2023-04-27T04:53:25;99511.73;;;8.73;100.00
43681;BME280;29281;50.356;30.894;2023-04-27T04:54:30;99509.19;;;8.71;100.00
43681;BME280;29281;50.356;30.894;2023-04-27T04:55:33;99505.16;;;8.78;100.00
43681;BME280;29281;50.356;30.894;2023-04-27T04:56:36;99509.19;;;8.71;100.00
43681;BME280;29281;50.356;30.894;2023-04-27T04:57:42;99510.74;;;8.87;100.00
43681;BME280;29281;50.356;30.894;2023-04-27T04:58:46;99510.20;;;8.94;100.00
43681;BME280;29281;50.356;30.894;2023-04-27T04:59:50;99515.86;;;8.77;100.00
43681;BME280;29281;50.356;30.894;2023-04-27T05:00:53;99518.30;;;8.80;100.00
43681;BME280;29281;50.356;30.894;2023-04-27T05:01:57;99518.22;;;8.69;100.00
43681;BME280;29281;50.356;30.894;2023-04-27T05:03:00;99518.93;;;8.71;100.00
43681;BME280;29281;50.356;30.894;2023-04-27T05:04:03;99517.55;;;8.78;100.00
43681;BME280;29281;50.356;30.894;2023-04-27T05:05:09;99528.25;;;8.76;100.00
43681;BME280;29281;50.356;30.894;2023-04-27T05:06:13;99521.47;;;8.72;100.00
43681;BME280;29281;50.356;30.894;2023-04-27T05:07:16;99524.55;;;8.79;100.00
43681;BME280;29281;50.356;30.894;2023-04-27T05:08:20;99521.75;;;8.93;100.00
43681;BME280;29281;50.356;30.894;2023-04-27T05:09:24;99527.27;;;8.90;100.00
43681;BME280;29281;50.356;30.894;2023-04-27T05:10:27;99521.22;;;9.01;100.00
43681;BME280;29281;50.356;30.894;2023-04-27T05:11:30;99519.63;;;8.98;100.00
43681;BME280;29281;50.356;30.894;2023-04-27T05:12:33;99530.39;;;9.08;100.00
43681;BME280;29281;50.356;30.894;2023-04-27T05:13:36;99529.73;;;8.80;100.00
43681;BME280;29281;50.356;30.894;2023-04-27T05:14:43;99535.80;;;8.70;100.00
43681;BME280;29281;50.356;30.894;2023-04-27T05:15:47;99537.35;;;8.72;100.00
43681;BME280;29281;50.356;30.894;2023-04-27T05:16:50;99532.16;;;8.71;100.00
43681;BME280;29281;50.356;30.894;2023-04-27T05:17:53;99533.67;;;8.62;100.00
43681;BME280;29281;50.356;30.894;2023-04-27T05:18:57;99529.13;;;8.64;100.00
43681;BME280;29281;50.356;30.894;2023-04-27T05:20:01;99535.80;;;8.70;100.00
43681;BME280;29281;50.356;30.894;2023-04-27T05:21:16;99530.50;;;8.70;100.00
43681;BME280;29281;50.356;30.894;2023-04-27T05:22:23;99532.91;;;8.73;100.00
43681;BME280;29281;50.356;30.894;2023-04-27T05:23:26;99533.30;;;8.92;100.00
43681;BME280;29281;50.356;30.894;2023-04-27T05:24:32;99530.69;;;8.79;100.00
43681;BME280;29281;50.356;30.894;2023-04-27T05:25:35;99531.42;;;8.81;100.00
43681;BME280;29281;50.356;30.894;2023-04-27T05:26:42;99530.13;;;8.87;100.00
43681;BME280;29281;50.356;30.894;2023-04-27T05:27:44;99525.36;;;8.92;100.00
43681;BME280;29281;50.356;30.894;2023-04-27T05:28:49;99531.11;;;8.73;100.00
43681;BME280;29281;50.356;30.894;2023-04-27T05:29:53;99533.47;;;8.65;100.00
43681;BME280;29281;50.356;30.894;2023-04-27T05:30:57;99537.06;;;8.64;100.00
43681;BME280;29281;50.356;30.894;2023-04-27T05:32:00;99535.58;;;8.60;100.00
43681;BME280;29281;50.356;30.894;2023-04-27T05:33:05;99537.56;;;8.82;100.00
43681;BME280;29281;50.356;30.894;2023-04-27T05:34:09;99544.03;;;8.78;100.00